Time;durP1;ratioP1;P1;durP2;ratioP2;P2;SDS_P1;SDS_P2;PMS_P1;PMS_P2;Temp;Humidity;BMP_temperature;BMP_pressure;BME280_temperature;BME280_humidity;BME280_pressure;Samples;Min_cycle;Max_cycle;Signal;HPM_P1;HPM_P2
2023/03/03 00:01:55;;;;;;;15.87;14.17;;;;;;;;;;5029635;28;20230;-74
2023/03/03 00:04:21;;;;;;;17.33;14.43;;;;;;;;;;4999606;28;20220;-75
2023/03/03 00:06:46;;;;;;;14.97;13.53;;;;;;;;;;4979188;28;20228;-75
2023/03/03 00:09:15;;;;;;;15.40;13.77;;;;;;;;;;5002773;28;20220;-75
2023/03/03 00:11:43;;;;;;;14.83;13.30;;;;;;;;;;4997089;28;20252;-75
2023/03/03 00:14:21;;;;;;;15.23;13.67;;;;;;;;;;4985093;28;20223;-74
2023/03/03 00:16:49;;;;;;;19.00;13.63;;;;;;;;;;4996730;28;20610;-75
2023/03/03 00:19:17;;;;;;;14.77;13.13;;;;;;;;;;5012724;28;20607;-74
2023/03/03 00:21:50;;;;;;;15.23;13.53;;;;;;;;;;5004990;28;20220;-75
2023/03/03 00:24:35;;;;;;;15.40;13.43;;;;;;;;;;4979372;28;20243;-75
2023/03/03 00:27:05;;;;;;;14.47;13.03;;;;;;;;;;5011909;28;20279;-74
2023/03/03 00:29:42;;;;;;;16.43;14.07;;;;;;;;;;4980496;28;20247;-74
2023/03/03 00:32:13;;;;;;;13.80;12.37;;;;;;;;;;4978954;28;20223;-74
2023/03/03 00:34:40;;;;;;;15.07;13.43;;;;;;;;;;5011374;28;20223;-75
2023/03/03 00:37:28;;;;;;;13.77;12.23;;;;;;;;;;4994059;28;20217;-75
2023/03/03 00:39:58;;;;;;;15.37;13.10;;;;;;;;;;4981189;28;20216;-74
2023/03/03 00:42:26;;;;;;;17.60;13.73;;;;;;;;;;4979623;28;20243;-75
2023/03/03 00:45:00;;;;;;;15.13;12.90;;;;;;;;;;5009795;28;21047;-75
2023/03/03 00:47:38;;;;;;;14.67;13.17;;;;;;;;;;5010610;28;20223;-74
2023/03/03 00:50:09;;;;;;;15.83;13.37;;;;;;;;;;4993838;28;20866;-75
2023/03/03 00:52:46;;;;;;;15.10;13.57;;;;;;;;;;5009652;28;20262;-74
2023/03/03 00:55:13;;;;;;;16.00;14.10;;;;;;;;;;5000170;28;20236;-74
2023/03/03 00:57:39;;;;;;;14.97;13.43;;;;;;;;;;4994993;28;20282;-74
2023/03/03 01:00:13;;;;;;;15.23;13.63;;;;;;;;;;4996068;28;20705;-75
2023/03/03 01:02:39;;;;;;;15.77;14.07;;;;;;;;;;4996410;28;20216;-75
2023/03/03 01:05:06;;;;;;;17.50;14.80;;;;;;;;;;4996704;28;20575;-75
2023/03/03 01:07:34;;;;;;;18.63;14.77;;;;;;;;;;4995798;28;20231;-75
2023/03/03 01:10:00;;;;;;;15.20;13.60;;;;;;;;;;4995425;28;20299;-75
2023/03/03 01:12:25;;;;;;;16.43;14.67;;;;;;;;;;4994899;28;20208;-75
2023/03/03 01:14:53;;;;;;;15.23;13.67;;;;;;;;;;4995404;28;20224;-75
2023/03/03 01:17:22;;;;;;;17.50;15.60;;;;;;;;;;4979741;28;20235;-74
2023/03/03 01:19:47;;;;;;;18.17;14.60;;;;;;;;;;4997796;28;20231;-75
2023/03/03 01:22:16;;;;;;;18.37;16.17;;;;;;;;;;4977543;28;20224;-75
2023/03/03 01:24:41;;;;;;;16.33;14.77;;;;;;;;;;4993867;28;20232;-75
2023/03/03 01:27:07;;;;;;;17.23;14.97;;;;;;;;;;4991883;28;20220;-75
2023/03/03 01:29:32;;;;;;;18.53;16.23;;;;;;;;;;4985123;28;20620;-74
2023/03/03 01:32:00;;;;;;;18.90;15.87;;;;;;;;;;4977337;28;20226;-75
2023/03/03 01:34:28;;;;;;;20.93;17.30;;;;;;;;;;4994450;28;20720;-75
2023/03/03 01:36:56;;;;;;;21.10;16.37;;;;;;;;;;5003037;28;20224;-74
2023/03/03 01:39:24;;;;;;;18.33;16.40;;;;;;;;;;4993606;28;20274;-75
2023/03/03 01:41:49;;;;;;;19.23;17.03;;;;;;;;;;5001389;28;20231;-75
2023/03/03 01:44:17;;;;;;;24.53;18.83;;;;;;;;;;4978243;28;20273;-75
2023/03/03 01:46:57;;;;;;;20.40;18.20;;;;;;;;;;4981165;28;20220;-75
2023/03/03 01:49:28;;;;;;;21.10;18.47;;;;;;;;;;4992796;28;20226;-75
2023/03/03 01:52:01;;;;;;;24.37;19.17;;;;;;;;;;4985804;28;20220;-76
2023/03/03 01:54:32;;;;;;;26.90;20.23;;;;;;;;;;4978294;28;20295;-75
2023/03/03 01:57:00;;;;;;;31.40;22.87;;;;;;;;;;4995414;28;20208;-75
2023/03/03 01:59:36;;;;;;;28.50;22.33;;;;;;;;;;4971282;28;20706;-74
2023/03/03 02:02:03;;;;;;;28.63;20.97;;;;;;;;;;4977858;28;20217;-74
2023/03/03 02:04:31;;;;;;;27.07;21.70;;;;;;;;;;4977190;28;20239;-74
2023/03/03 02:07:05;;;;;;;26.80;22.00;;;;;;;;;;4977732;28;20287;-74
2023/03/03 02:10:05;;;;;;;28.87;22.73;;;;;;;;;;4979441;28;20610;-75
2023/03/03 02:12:39;;;;;;;31.10;21.90;;;;;;;;;;4994596;28;20216;-74
2023/03/03 02:15:36;;;;;;;31.73;23.87;;;;;;;;;;4977312;28;20286;-73
2023/03/03 02:18:04;;;;;;;32.37;23.43;;;;;;;;;;4999002;28;20224;-74
2023/03/03 02:20:59;;;;;;;33.93;23.37;;;;;;;;;;4982896;28;20239;-75
2023/03/03 02:23:52;;;;;;;33.57;26.67;;;;;;;;;;4993924;28;20295;-74
2023/03/03 02:26:25;;;;;;;33.30;26.20;;;;;;;;;;5027357;28;20236;-75
2023/03/03 02:28:59;;;;;;;37.83;28.37;;;;;;;;;;4997082;28;20211;-74
2023/03/03 02:31:27;;;;;;;41.73;29.13;;;;;;;;;;4977918;28;20250;-75
2023/03/03 02:33:55;;;;;;;44.53;29.70;;;;;;;;;;4993931;28;20208;-75
2023/03/03 02:36:25;;;;;;;35.33;27.27;;;;;;;;;;5002542;28;20212;-75
2023/03/03 02:38:56;;;;;;;44.23;28.10;;;;;;;;;;5025775;28;20222;-74
2023/03/03 02:41:34;;;;;;;41.47;29.93;;;;;;;;;;4992397;28;20216;-74
2023/03/03 02:44:30;;;;;;;45.27;29.17;;;;;;;;;;5025705;28;20228;-76
2023/03/03 02:46:59;;;;;;;38.30;28.73;;;;;;;;;;4990693;28;20243;-75
2023/03/03 02:49:27;;;;;;;46.60;30.13;;;;;;;;;;4984518;28;20227;-75
2023/03/03 02:51:55;;;;;;;47.27;30.43;;;;;;;;;;4977801;28;20216;-73
2023/03/03 02:54:21;;;;;;;40.63;29.60;;;;;;;;;;4990846;28;20228;-77
2023/03/03 02:56:49;;;;;;;36.33;27.60;;;;;;;;;;4981152;28;20254;-74
2023/03/03 02:59:15;;;;;;;36.43;26.87;;;;;;;;;;4959308;28;20217;-75
2023/03/03 03:01:45;;;;;;;38.53;29.13;;;;;;;;;;5009499;28;20234;-74
2023/03/03 03:04:18;;;;;;;40.07;28.50;;;;;;;;;;4995075;28;20231;-75
2023/03/03 03:06:47;;;;;;;42.60;29.40;;;;;;;;;;5011658;28;20313;-74
2023/03/03 03:09:14;;;;;;;41.40;29.23;;;;;;;;;;4976897;28;20808;-74
2023/03/03 03:11:45;;;;;;;41.10;29.93;;;;;;;;;;4963845;28;20274;-74
2023/03/03 03:14:18;;;;;;;41.80;29.40;;;;;;;;;;4979016;28;20247;-74
2023/03/03 03:16:45;;;;;;;42.90;28.80;;;;;;;;;;5005326;28;20761;-74
2023/03/03 03:19:13;;;;;;;42.57;30.70;;;;;;;;;;4993940;28;20299;-74
2023/03/03 03:21:42;;;;;;;41.37;31.17;;;;;;;;;;4997712;28;20709;-74
2023/03/03 03:24:11;;;;;;;40.83;30.47;;;;;;;;;;5016913;28;20209;-72
2023/03/03 03:26:42;;;;;;;38.43;28.37;;;;;;;;;;5028236;28;20224;-74
2023/03/03 03:29:09;;;;;;;42.77;29.43;;;;;;;;;;5012914;28;20697;-74
2023/03/03 03:31:38;;;;;;;39.20;29.10;;;;;;;;;;5013434;28;20307;-75
2023/03/03 03:34:03;;;;;;;40.07;30.00;;;;;;;;;;4986209;28;20277;-75
2023/03/03 03:36:32;;;;;;;40.10;29.67;;;;;;;;;;5011567;28;20221;-74
2023/03/03 03:39:01;;;;;;;41.60;30.70;;;;;;;;;;4997138;28;20590;-74
2023/03/03 03:41:30;;;;;;;38.37;30.03;;;;;;;;;;5004587;28;20248;-74
2023/03/03 03:43:55;;;;;;;36.37;27.77;;;;;;;;;;5021660;28;20212;-74
2023/03/03 03:46:26;;;;;;;40.20;30.30;;;;;;;;;;5010890;28;20234;-74
2023/03/03 03:48:55;;;;;;;42.93;30.90;;;;;;;;;;4979039;28;20763;-74
2023/03/03 03:51:21;;;;;;;43.53;31.40;;;;;;;;;;4963255;28;20223;-74
2023/03/03 03:53:47;;;;;;;44.13;30.10;;;;;;;;;;4995617;28;20204;-74
2023/03/03 03:56:12;;;;;;;41.03;30.67;;;;;;;;;;4995703;28;20216;-75
2023/03/03 03:58:42;;;;;;;48.73;32.23;;;;;;;;;;4979256;28;20243;-74
2023/03/03 04:01:13;;;;;;;43.13;29.47;;;;;;;;;;5000727;28;20212;-74
2023/03/03 04:03:43;;;;;;;41.73;29.93;;;;;;;;;;5010970;23;20222;-85
2023/03/03 04:06:21;;;;;;;44.57;31.20;;;;;;;;;;4961058;28;20241;-85
2023/03/03 04:08:58;;;;;;;41.33;28.47;;;;;;;;;;4968803;28;20221;-85
2023/03/03 04:11:29;;;;;;;40.07;27.70;;;;;;;;;;4974192;28;20221;-85
2023/03/03 04:13:55;;;;;;;40.00;30.37;;;;;;;;;;4969515;28;20279;-84
2023/03/03 04:16:38;;;;;;;46.73;31.17;;;;;;;;;;4963232;28;20228;-83
2023/03/03 04:19:23;;;;;;;38.27;27.67;;;;;;;;;;4967046;28;20293;-84
2023/03/03 04:21:57;;;;;;;40.27;29.10;;;;;;;;;;4933756;28;20889;-83
2023/03/03 04:24:29;;;;;;;44.93;30.27;;;;;;;;;;4967922;28;20900;-84
2023/03/03 04:26:56;;;;;;;43.10;30.07;;;;;;;;;;4962479;28;20237;-84
2023/03/03 04:29:22;;;;;;;42.57;30.97;;;;;;;;;;4969768;28;20228;-84
2023/03/03 04:31:48;;;;;;;42.13;30.13;;;;;;;;;;4965868;28;20258;-85
2023/03/03 04:34:17;;;;;;;47.27;32.30;;;;;;;;;;4976676;28;20304;-84
2023/03/03 04:36:47;;;;;;;42.67;30.50;;;;;;;;;;4973309;28;20709;-84
2023/03/03 04:39:30;;;;;;;44.40;30.20;;;;;;;;;;4986160;28;20221;-85
2023/03/03 04:42:00;;;;;;;39.70;30.30;;;;;;;;;;4978713;28;20601;-84
2023/03/03 04:44:33;;;;;;;45.40;29.80;;;;;;;;;;4971724;28;20227;-84
2023/03/03 04:46:59;;;;;;;43.43;28.40;;;;;;;;;;4973243;28;20859;-83
2023/03/03 04:49:37;;;;;;;44.13;29.00;;;;;;;;;;4966373;28;20225;-82
2023/03/03 04:52:07;;;;;;;38.87;28.50;;;;;;;;;;5003099;28;20220;-82
2023/03/03 04:54:34;;;;;;;40.60;28.97;;;;;;;;;;4970999;28;20229;-81
2023/03/03 04:57:00;;;;;;;40.10;28.63;;;;;;;;;;4971507;28;20243;-81
2023/03/03 04:59:25;;;;;;;39.17;27.47;;;;;;;;;;4970270;28;20694;-81
2023/03/03 05:01:52;;;;;;;31.93;25.07;;;;;;;;;;4967868;28;20228;-81
2023/03/03 05:04:19;;;;;;;36.37;25.40;;;;;;;;;;4991504;28;20228;-81
2023/03/03 05:06:49;;;;;;;36.43;25.67;;;;;;;;;;4964529;28;20783;-81
2023/03/03 05:09:17;;;;;;;37.50;26.27;;;;;;;;;;4955531;28;20692;-85
2023/03/03 05:11:44;;;;;;;38.70;26.50;;;;;;;;;;4964890;28;20225;-82
2023/03/03 05:14:12;;;;;;;37.63;25.77;;;;;;;;;;4979242;28;20235;-83
2023/03/03 05:16:38;;;;;;;39.30;26.57;;;;;;;;;;4970144;28;20212;-81
2023/03/03 05:19:05;;;;;;;38.43;27.43;;;;;;;;;;4964189;28;20700;-81
2023/03/03 05:21:33;;;;;;;39.73;28.33;;;;;;;;;;4954140;28;20229;-80
2023/03/03 05:23:58;;;;;;;38.87;28.23;;;;;;;;;;4984996;28;20229;-82
2023/03/03 05:26:24;;;;;;;42.23;29.10;;;;;;;;;;4943172;28;20225;-80
2023/03/03 05:28:55;;;;;;;36.70;27.00;;;;;;;;;;4965332;28;20284;-81
2023/03/03 05:31:27;;;;;;;38.20;26.43;;;;;;;;;;4981015;28;20572;-83
2023/03/03 05:33:53;;;;;;;37.87;26.47;;;;;;;;;;4976943;28;20224;-82
2023/03/03 05:36:18;;;;;;;33.33;25.60;;;;;;;;;;4959522;28;20212;-82
2023/03/03 05:38:44;;;;;;;40.10;26.67;;;;;;;;;;4980456;28;20231;-81
2023/03/03 05:41:12;;;;;;;41.73;27.03;;;;;;;;;;4969943;28;20252;-81
2023/03/03 05:43:40;;;;;;;34.93;25.87;;;;;;;;;;4979721;28;20229;-82
2023/03/03 05:46:06;;;;;;;42.57;28.37;;;;;;;;;;4964938;28;20230;-83
2023/03/03 05:48:44;;;;;;;45.20;27.87;;;;;;;;;;4967413;28;20235;-81
2023/03/03 05:51:38;;;;;;;39.33;26.53;;;;;;;;;;4909267;28;20242;-82
2023/03/03 05:54:24;;;;;;;38.90;26.57;;;;;;;;;;4956689;23;20255;-73
2023/03/03 05:56:50;;;;;;;40.90;27.43;;;;;;;;;;4969170;28;20710;-73
2023/03/03 05:59:19;;;;;;;38.20;26.10;;;;;;;;;;4970335;28;20224;-74
2023/03/03 06:01:47;;;;;;;41.13;27.20;;;;;;;;;;4984840;28;20229;-73
2023/03/03 06:04:15;;;;;;;39.50;26.50;;;;;;;;;;4982487;28;20285;-74
2023/03/03 06:06:43;;;;;;;38.20;27.17;;;;;;;;;;4985141;28;20677;-74
2023/03/03 06:09:12;;;;;;;38.47;28.03;;;;;;;;;;4969008;28;20231;-74
2023/03/03 06:11:40;;;;;;;40.20;25.97;;;;;;;;;;5000472;28;20218;-74
2023/03/03 06:14:08;;;;;;;39.87;25.73;;;;;;;;;;4986066;28;20232;-74
2023/03/03 06:16:34;;;;;;;35.10;25.10;;;;;;;;;;5000406;28;20342;-73
2023/03/03 06:21:59;;;;;;;38.20;25.70;;;;;;;;;;4966343;28;20224;-82
2023/03/03 06:24:39;;;;;;;;;;;;;;;;;;;;;
2023/03/03 06:27:55;;;;;;;36.90;24.47;;;;;;;;;;4890967;28;20226;-84
2023/03/03 06:34:52;;;;;;;37.77;24.90;;;;;;;;;;4840542;29;20650;-81
2023/03/03 06:37:51;;;;;;;;;;;;;;;;;;;;;
2023/03/03 06:41:17;;;;;;;32.57;23.03;;;;;;;;;;4893335;29;20219;-81
2023/03/03 06:48:12;;;;;;;;;;;;;;;;;;;;;
2023/03/03 06:51:13;;;;;;;33.93;23.57;;;;;;;;;;4899716;28;21395;-82
2023/03/03 06:54:41;;;;;;;;;;;;;;;;;;;;;
2023/03/03 07:01:50;;;;;;;30.60;21.40;;;;;;;;;;4954585;28;20771;-80
2023/03/03 07:05:33;;;;;;;;;;;;;;;;;;;;;
2023/03/03 07:08:34;;;;;;;28.43;20.67;;;;;;;;;;4963244;28;20323;-82
2023/03/03 07:11:39;;;;;;;;;;;;;;;;;;;;;
2023/03/03 07:14:15;;;;;;;29.93;21.43;;;;;;;;;;4961116;28;20217;-82
2023/03/03 07:17:03;;;;;;;30.20;23.27;;;;;;;;;;4953172;28;20280;-82
2023/03/03 07:19:55;;;;;;;30.17;21.23;;;;;;;;;;4952092;28;20217;-84
2023/03/03 07:22:30;;;;;;;33.10;22.27;;;;;;;;;;4977863;28;20313;-83
2023/03/03 07:25:13;;;;;;;;;;;;;;;;;;;;;
2023/03/03 07:27:55;;;;;;;28.67;20.60;;;;;;;;;;4975337;28;20261;-81
2023/03/03 07:30:26;;;;;;;30.67;22.37;;;;;;;;;;4971671;28;20599;-82
2023/03/03 07:36:52;;;;;;;;;;;;;;;;;;;;;
2023/03/03 07:39:35;;;;;;;30.60;22.43;;;;;;;;;;4957511;28;20228;-82
2023/03/03 07:42:45;;;;;;;29.80;22.03;;;;;;;;;;4975044;28;20218;-82
2023/03/03 07:45:24;;;;;;;28.97;21.43;;;;;;;;;;4972558;28;20240;-82
2023/03/03 07:47:49;;;;;;;26.40;20.33;;;;;;;;;;4955103;28;20253;-82
2023/03/03 07:50:18;;;;;;;31.67;21.93;;;;;;;;;;4969931;28;20277;-82
2023/03/03 07:52:59;;;;;;;30.57;21.50;;;;;;;;;;4972069;28;20270;-82
2023/03/03 07:55:40;;;;;;;24.90;19.97;;;;;;;;;;4971821;28;20248;-82
2023/03/03 07:58:13;;;;;;;26.00;20.10;;;;;;;;;;4980727;28;20667;-79
2023/03/03 08:00:39;;;;;;;29.27;20.80;;;;;;;;;;4989217;28;20222;-82
2023/03/03 08:03:20;;;;;;;25.33;20.43;;;;;;;;;;4987363;28;20214;-82
2023/03/03 08:05:47;;;;;;;28.00;20.50;;;;;;;;;;4973370;28;20233;-81
2023/03/03 08:08:29;;;;;;;24.73;19.47;;;;;;;;;;4971210;28;20214;-83
2023/03/03 08:10:59;;;;;;;24.03;18.97;;;;;;;;;;4985207;28;20584;-81
2023/03/03 08:13:33;;;;;;;27.27;19.77;;;;;;;;;;4999219;28;20212;-81
2023/03/03 08:16:20;;;;;;;24.10;18.70;;;;;;;;;;4991744;28;20229;-79
2023/03/03 08:18:52;;;;;;;22.47;18.23;;;;;;;;;;4989294;28;20228;-80
2023/03/03 08:21:24;;;;;;;22.33;17.13;;;;;;;;;;4959985;28;20222;-81
2023/03/03 08:23:52;;;;;;;25.23;18.97;;;;;;;;;;4973670;28;20226;-82
2023/03/03 08:26:20;;;;;;;19.83;17.03;;;;;;;;;;4969412;28;20230;-82
2023/03/03 08:28:45;;;;;;;18.93;16.43;;;;;;;;;;4978232;28;20240;-82
2023/03/03 08:31:13;;;;;;;20.87;16.93;;;;;;;;;;4963468;28;20218;-83
2023/03/03 08:33:41;;;;;;;20.83;17.77;;;;;;;;;;4941051;28;20601;-83
2023/03/03 08:36:07;;;;;;;22.20;19.03;;;;;;;;;;4957366;28;20880;-82
2023/03/03 08:38:35;;;;;;;22.23;18.63;;;;;;;;;;4987278;28;20224;-82
2023/03/03 08:41:00;;;;;;;22.50;18.13;;;;;;;;;;4957979;28;20310;-82
2023/03/03 08:43:26;;;;;;;24.80;18.20;;;;;;;;;;4925789;28;20222;-82
2023/03/03 08:45:59;;;;;;;22.13;17.23;;;;;;;;;;4941650;28;20233;-81
2023/03/03 08:48:24;;;;;;;19.67;16.80;;;;;;;;;;4936734;28;20218;-81
2023/03/03 08:50:52;;;;;;;19.63;16.27;;;;;;;;;;4957141;28;20705;-80
2023/03/03 08:53:21;;;;;;;20.20;16.47;;;;;;;;;;4973120;28;20730;-81
2023/03/03 08:55:48;;;;;;;19.53;16.70;;;;;;;;;;4956739;28;20241;-81
2023/03/03 08:58:14;;;;;;;20.97;16.33;;;;;;;;;;4955938;28;21236;-81
2023/03/03 09:00:40;;;;;;;21.57;16.17;;;;;;;;;;4938943;28;20226;-81
2023/03/03 09:03:08;;;;;;;18.43;16.30;;;;;;;;;;4955672;28;20733;-82
2023/03/03 09:05:34;;;;;;;18.00;14.80;;;;;;;;;;4940847;28;20640;-81
2023/03/03 09:08:00;;;;;;;17.57;15.17;;;;;;;;;;4959073;28;20846;-80
2023/03/03 09:10:28;;;;;;;18.90;14.30;;;;;;;;;;4941519;28;20218;-82
2023/03/03 09:12:57;;;;;;;15.37;13.67;;;;;;;;;;4956310;28;20230;-80
2023/03/03 09:15:27;;;;;;;14.77;12.93;;;;;;;;;;4952967;28;20313;-79
2023/03/03 09:17:56;;;;;;;15.87;14.17;;;;;;;;;;4956553;28;20234;-82
2023/03/03 09:20:32;;;;;;;18.00;14.77;;;;;;;;;;4936280;28;20240;-82
2023/03/03 09:22:58;;;;;;;15.67;13.43;;;;;;;;;;4936913;28;20229;-82
2023/03/03 09:25:31;;;;;;;17.73;14.93;;;;;;;;;;4973850;28;20320;-80
2023/03/03 09:27:56;;;;;;;16.33;14.40;;;;;;;;;;4979681;28;20240;-83
2023/03/03 09:30:27;;;;;;;15.77;14.13;;;;;;;;;;4941792;28;21801;-83
2023/03/03 09:32:53;;;;;;;19.17;14.47;;;;;;;;;;4936149;28;20226;-80
2023/03/03 09:35:39;;;;;;;16.60;14.23;;;;;;;;;;4950827;28;20226;-82
2023/03/03 09:38:32;;;;;;;15.03;13.47;;;;;;;;;;4934664;28;21143;-81
2023/03/03 09:41:06;;;;;;;14.93;13.33;;;;;;;;;;4968254;28;20230;-80
2023/03/03 09:43:59;;;;;;;14.90;12.40;;;;;;;;;;4951537;28;20236;-79
2023/03/03 09:47:05;;;;;;;14.17;12.07;;;;;;;;;;4965465;28;20226;-81
2023/03/03 09:49:34;;;;;;;15.40;13.27;;;;;;;;;;4940371;28;20226;-80
2023/03/03 09:52:28;;;;;;;13.87;12.20;;;;;;;;;;4967115;28;20230;-80
2023/03/03 09:55:18;;;;;;;14.10;12.70;;;;;;;;;;4953739;28;20248;-84
2023/03/03 09:57:50;;;;;;;13.70;12.30;;;;;;;;;;4966460;28;20334;-83
2023/03/03 10:00:37;;;;;;;18.90;13.57;;;;;;;;;;4966191;28;20274;-83
2023/03/03 10:03:09;;;;;;;13.90;12.50;;;;;;;;;;4964210;28;20226;-85
2023/03/03 10:05:40;;;;;;;14.40;12.90;;;;;;;;;;4950148;28;20601;-83
2023/03/03 10:08:24;;;;;;;15.73;13.00;;;;;;;;;;4951663;28;20917;-84
2023/03/03 10:11:03;;;;;;;13.27;11.67;;;;;;;;;;4951365;28;20221;-84
2023/03/03 10:13:43;;;;;;;15.93;13.10;;;;;;;;;;4951788;28;20250;-85
2023/03/03 10:16:11;;;;;;;14.70;13.10;;;;;;;;;;4947972;28;20804;-84
2023/03/03 10:18:54;;;;;;;14.80;13.10;;;;;;;;;;4954320;28;20933;-83
2023/03/03 10:21:31;;;;;;;17.03;12.77;;;;;;;;;;4966943;28;20217;-85
2023/03/03 10:24:19;;;;;;;13.93;12.43;;;;;;;;;;4968964;28;20233;-82
2023/03/03 10:26:47;;;;;;;14.60;12.33;;;;;;;;;;4964219;28;21069;-83
2023/03/03 10:29:45;;;;;;;15.27;13.47;;;;;;;;;;4966407;28;20218;-82
2023/03/03 10:32:24;;;;;;;15.67;13.90;;;;;;;;;;4969329;28;20265;-86
2023/03/03 10:35:15;;;;;;;19.70;14.27;;;;;;;;;;4924710;28;20230;-84
2023/03/03 10:37:52;;;;;;;15.67;13.17;;;;;;;;;;4942979;28;20229;-86
2023/03/03 10:40:39;;;;;;;14.50;12.73;;;;;;;;;;4941355;28;20229;-83
2023/03/03 10:43:23;;;;;;;15.90;12.97;;;;;;;;;;4932271;28;20257;-82
2023/03/03 10:46:08;;;;;;;16.43;12.23;;;;;;;;;;4970043;28;20268;-83
2023/03/03 10:48:56;;;;;;;14.67;12.70;;;;;;;;;;4909466;28;20214;-84
2023/03/03 10:51:30;;;;;;;16.07;12.40;;;;;;;;;;4956201;28;20281;-86
2023/03/03 10:54:06;;;;;;;15.20;12.77;;;;;;;;;;4969957;28;20220;-85
2023/03/03 10:56:42;;;;;;;17.13;13.10;;;;;;;;;;4938115;28;20783;-84
2023/03/03 10:59:22;;;;;;;16.90;13.47;;;;;;;;;;4954891;28;20249;-83
2023/03/03 11:01:58;;;;;;;16.23;14.07;;;;;;;;;;4940198;28;20222;-83
2023/03/03 11:05:03;;;;;;;17.33;14.23;;;;;;;;;;4924722;28;20229;-85
2023/03/03 11:07:32;;;;;;;16.70;13.77;;;;;;;;;;4948007;28;20221;-83
2023/03/03 11:10:16;;;;;;;15.97;13.30;;;;;;;;;;4973104;28;20218;-82
2023/03/03 11:12:48;;;;;;;16.90;13.43;;;;;;;;;;4952462;28;20320;-82
2023/03/03 11:15:52;;;;;;;20.20;14.03;;;;;;;;;;4967292;28;20694;-83
2023/03/03 11:18:36;;;;;;;17.53;13.23;;;;;;;;;;4934719;28;20292;-82
2023/03/03 11:21:24;;;;;;;17.23;13.93;;;;;;;;;;4940876;28;20619;-84
2023/03/03 11:24:01;;;;;;;15.23;13.20;;;;;;;;;;4971826;28;20572;-84
2023/03/03 11:26:49;;;;;;;15.87;12.23;;;;;;;;;;4971587;28;20230;-85
2023/03/03 11:29:24;;;;;;;16.43;12.57;;;;;;;;;;4971146;28;20221;-84
2023/03/03 11:31:54;;;;;;;15.13;12.43;;;;;;;;;;4956211;28;21069;-84
2023/03/03 11:34:35;;;;;;;16.60;12.40;;;;;;;;;;4944223;28;20226;-85
2023/03/03 11:37:19;;;;;;;13.73;11.70;;;;;;;;;;4955601;28;20598;-84
2023/03/03 11:39:44;;;;;;;15.57;11.67;;;;;;;;;;4954026;28;20868;-84
2023/03/03 11:42:18;;;;;;;13.20;11.40;;;;;;;;;;4935740;28;20274;-84
2023/03/03 11:45:17;;;;;;;15.97;12.23;;;;;;;;;;4953838;28;20417;-84
2023/03/03 11:48:11;;;;;;;15.40;12.70;;;;;;;;;;4937223;28;20222;-84
2023/03/03 11:51:06;;;;;;;17.97;12.70;;;;;;;;;;4928368;28;20223;-85
2023/03/03 11:54:00;;;;;;;15.27;11.53;;;;;;;;;;4927276;28;21116;-85
2023/03/03 11:56:45;;;;;;;17.13;11.50;;;;;;;;;;4936120;28;20808;-84
2023/03/03 11:59:35;;;;;;;13.10;10.90;;;;;;;;;;4907431;28;20254;-83
2023/03/03 12:02:14;;;;;;;15.93;12.43;;;;;;;;;;4970122;28;20233;-84
2023/03/03 12:04:43;;;;;;;13.53;11.60;;;;;;;;;;4971342;28;20811;-87
2023/03/03 12:07:30;;;;;;;16.03;11.13;;;;;;;;;;4968285;28;20230;-84
2023/03/03 12:10:34;;;;;;;14.93;11.77;;;;;;;;;;4952806;28;20875;-82
2023/03/03 12:13:15;;;;;;;13.13;11.40;;;;;;;;;;4966776;28;20236;-84
2023/03/03 12:15:47;;;;;;;12.50;11.20;;;;;;;;;;4929291;28;20222;-84
2023/03/03 12:18:34;;;;;;;14.03;10.57;;;;;;;;;;4922186;28;20219;-84
2023/03/03 12:21:14;;;;;;;13.53;11.60;;;;;;;;;;4955015;28;20230;-86
2023/03/03 12:24:28;;;;;;;14.03;11.67;;;;;;;;;;4956572;28;21599;-84
2023/03/03 12:27:14;;;;;;;13.23;11.90;;;;;;;;;;4929608;28;20234;-86
2023/03/03 12:29:56;;;;;;;14.77;12.47;;;;;;;;;;4940055;28;20229;-85
2023/03/03 12:32:39;;;;;;;12.80;11.00;;;;;;;;;;4937307;28;20791;-85
2023/03/03 12:35:34;;;;;;;16.33;12.23;;;;;;;;;;4955315;28;20241;-82
2023/03/03 12:38:17;;;;;;;13.07;11.77;;;;;;;;;;4967534;28;20226;-83
2023/03/03 12:41:21;;;;;;;14.17;12.33;;;;;;;;;;4946766;28;20218;-78
2023/03/03 12:43:56;;;;;;;13.50;11.67;;;;;;;;;;4987573;28;20240;-84
2023/03/03 12:46:50;;;;;;;15.77;12.27;;;;;;;;;;4984587;28;20257;-84
2023/03/03 12:49:18;;;;;;;17.20;12.03;;;;;;;;;;4971978;28;21541;-80
2023/03/03 12:52:14;;;;;;;14.17;12.00;;;;;;;;;;4956700;28;20222;-80
2023/03/03 12:54:57;;;;;;;15.00;13.30;;;;;;;;;;4959989;28;20226;-83
2023/03/03 12:57:43;;;;;;;16.63;13.77;;;;;;;;;;4962960;28;20230;-82
2023/03/03 13:00:27;;;;;;;16.60;14.80;;;;;;;;;;4963556;28;20233;-82
2023/03/03 13:03:01;;;;;;;17.53;15.23;;;;;;;;;;4980371;28;20281;-84
2023/03/03 13:06:01;;;;;;;16.47;14.77;;;;;;;;;;4950358;28;20234;-82
2023/03/03 13:09:16;;;;;;;16.90;14.07;;;;;;;;;;4965534;28;20234;-82
2023/03/03 13:12:12;;;;;;;15.17;13.67;;;;;;;;;;4884328;29;20382;-83
2023/03/03 13:15:10;;;;;;;16.50;13.63;;;;;;;;;;4978509;28;20285;-81
2023/03/03 13:17:35;;;;;;;15.80;13.40;;;;;;;;;;4956972;28;20233;-81
2023/03/03 13:20:40;;;;;;;16.10;14.40;;;;;;;;;;4980626;28;20567;-81
2023/03/03 13:23:21;;;;;;;20.10;15.40;;;;;;;;;;4964133;28;20215;-81
2023/03/03 13:25:56;;;;;;;17.43;13.30;;;;;;;;;;4995293;28;20213;-81
2023/03/03 13:28:40;;;;;;;15.20;13.57;;;;;;;;;;4977126;28;20311;-82
2023/03/03 13:31:18;;;;;;;23.77;15.57;;;;;;;;;;4980166;28;20312;-82
2023/03/03 13:33:54;;;;;;;16.33;14.63;;;;;;;;;;4982651;28;21082;-83
2023/03/03 13:36:22;;;;;;;20.87;16.50;;;;;;;;;;4954793;28;20218;-83
2023/03/03 13:38:52;;;;;;;17.07;15.27;;;;;;;;;;4972293;28;20226;-80
2023/03/03 13:41:41;;;;;;;18.43;16.40;;;;;;;;;;4932058;28;20230;-82
2023/03/03 13:44:18;;;;;;;18.70;15.57;;;;;;;;;;4948381;28;20230;-82
2023/03/03 13:46:49;;;;;;;22.63;15.67;;;;;;;;;;4953780;28;20929;-81
2023/03/03 13:49:32;;;;;;;20.07;15.30;;;;;;;;;;4976161;28;20773;-83
2023/03/03 13:52:47;;;;;;;17.57;15.67;;;;;;;;;;4959986;28;20232;-83
2023/03/03 13:55:18;;;;;;;17.93;16.03;;;;;;;;;;4861366;29;20238;-83
2023/03/03 13:57:55;;;;;;;16.57;14.87;;;;;;;;;;4860073;29;20246;-83
2023/03/03 14:00:38;;;;;;;18.60;14.87;;;;;;;;;;4907208;28;20245;-82
2023/03/03 14:03:10;;;;;;;18.67;15.53;;;;;;;;;;4930275;28;20226;-83
2023/03/03 14:05:58;;;;;;;17.83;15.93;;;;;;;;;;4962162;28;20280;-84
2023/03/03 14:08:44;;;;;;;17.63;14.60;;;;;;;;;;4946432;28;20707;-81
2023/03/03 14:11:29;;;;;;;19.23;16.10;;;;;;;;;;4991101;28;20232;-79
2023/03/03 14:14:12;;;;;;;20.97;16.37;;;;;;;;;;4974909;28;20227;-81
2023/03/03 14:16:50;;;;;;;21.50;16.57;;;;;;;;;;4974566;28;20248;-81
2023/03/03 14:19:35;;;;;;;18.33;15.73;;;;;;;;;;4974393;28;20218;-79
2023/03/03 14:22:22;;;;;;;16.93;14.43;;;;;;;;;;4969687;28;20241;-80
2023/03/03 14:25:06;;;;;;;19.67;14.90;;;;;;;;;;4973829;28;20241;-80
2023/03/03 14:27:39;;;;;;;17.87;15.10;;;;;;;;;;4990584;28;20226;-79
2023/03/03 14:30:24;;;;;;;18.23;15.77;;;;;;;;;;4960149;28;20248;-80
2023/03/03 14:33:14;;;;;;;21.77;15.37;;;;;;;;;;4987449;28;20237;-80
2023/03/03 14:35:48;;;;;;;19.37;15.30;;;;;;;;;;4961552;28;20242;-81
2023/03/03 14:38:18;;;;;;;20.57;15.33;;;;;;;;;;4949726;28;20643;-83
2023/03/03 14:40:44;;;;;;;22.30;15.43;;;;;;;;;;4965053;28;20245;-83
2023/03/03 14:43:35;;;;;;;21.67;16.83;;;;;;;;;;4948262;28;20210;-83
2023/03/03 14:46:27;;;;;;;20.53;16.50;;;;;;;;;;4937577;28;20276;-82
2023/03/03 14:48:55;;;;;;;24.50;17.57;;;;;;;;;;4946302;28;20687;-82
2023/03/03 14:51:41;;;;;;;24.07;17.43;;;;;;;;;;4950481;28;20207;-83
2023/03/03 14:54:21;;;;;;;24.97;17.80;;;;;;;;;;4977508;28;20246;-82
2023/03/03 14:57:24;;;;;;;23.37;17.80;;;;;;;;;;4967789;28;20637;-81
2023/03/03 14:59:58;;;;;;;31.33;21.57;;;;;;;;;;4997971;28;20309;-83
2023/03/03 15:02:29;;;;;;;25.73;19.67;;;;;;;;;;4944934;28;20281;-81
2023/03/03 15:05:19;;;;;;;29.13;20.97;;;;;;;;;;4980352;28;20226;-82
2023/03/03 15:07:46;;;;;;;25.73;19.30;;;;;;;;;;4994378;28;20572;-82
2023/03/03 15:10:14;;;;;;;27.33;19.00;;;;;;;;;;4961971;28;20210;-82
2023/03/03 15:12:42;;;;;;;28.57;19.63;;;;;;;;;;4967470;28;20230;-82
2023/03/03 15:15:18;;;;;;;23.40;19.13;;;;;;;;;;4930914;28;20234;-82
2023/03/03 15:17:49;;;;;;;27.47;19.70;;;;;;;;;;4965632;28;20222;-83
2023/03/03 15:20:23;;;;;;;27.90;19.03;;;;;;;;;;4977657;28;20225;-80
2023/03/03 15:23:30;;;;;;;25.20;19.00;;;;;;;;;;4975211;28;20221;-82
2023/03/03 15:26:08;;;;;;;25.67;18.83;;;;;;;;;;4974455;28;20221;-82
2023/03/03 15:28:46;;;;;;;23.13;17.57;;;;;;;;;;4963290;28;20230;-82
2023/03/03 15:31:14;;;;;;;26.23;17.50;;;;;;;;;;4985369;28;20833;-86
2023/03/03 15:33:39;;;;;;;21.23;18.20;;;;;;;;;;4970896;28;20229;-87
2023/03/03 15:36:16;;;;;;;25.73;17.57;;;;;;;;;;4953646;28;20261;-87
2023/03/03 15:38:41;;;;;;;22.20;18.23;;;;;;;;;;4971438;28;20378;-85
2023/03/03 15:41:06;;;;;;;19.80;17.50;;;;;;;;;;4987588;28;20734;-87